Time;durP1;ratioP1;P1;durP2;ratioP2;P2;SDS_P1;SDS_P2;PMS_P1;PMS_P2;Temp;Humidity;BMP_temperature;BMP_pressure;BME280_temperature;BME280_humidity;BME280_pressure;Samples;Min_cycle;Max_cycle;Signal;HPM_P1;HPM_P2
2021/09/30 00:00:07;;;;;;;6.47;0.80;;;;;;;;;;4993250;28;20034;-87
2021/09/30 00:02:33;;;;;;;0.98;0.93;;;;;;;;;;4989544;28;20033;-86
2021/09/30 00:04:59;;;;;;;2.55;1.00;;;;;;;;;;5003316;28;20039;-87
2021/09/30 00:07:25;;;;;;;0.80;0.70;;;;;;;;;;4992432;28;20027;-87
2021/09/30 00:09:51;;;;;;;0.90;0.70;;;;;;;;;;4974185;28;20038;-88
2021/09/30 00:12:20;;;;;;;0.77;0.65;;;;;;;;;;4992019;28;20030;-87
2021/09/30 00:17:45;;;;;;;3.20;0.57;;;14.00;58.80;;;;;;4977894;28;20027;-88
2021/09/30 01:32:27;;;;;;;0.30;0.30;;;;;;;;;;4974990;28;20047;-88
2021/09/30 02:20:32;;;;;;;2.38;0.50;;;;;;;;;;4954121;28;20122;-87
2021/09/30 02:26:00;;;;;;;0.60;0.60;;;;;;;;;;4953642;29;20055;-87
2021/09/30 02:58:38;;;;;;;1.60;0.75;;;;;;;;;;4994201;28;20415;-87
2021/09/30 03:01:07;;;;;;;0.50;0.50;;;13.00;58.30;;;;;;4994498;28;20045;-87
2021/09/30 03:03:35;;;;;;;0.77;0.45;;;;;;;;;;5008403;28;20030;-88
2021/09/30 03:06:01;;;;;;;1.80;0.45;;;;;;;;;;4975078;28;20488;-86
2021/09/30 03:08:30;;;;;;;0.77;0.50;;;13.00;57.80;;;;;;4990530;28;20026;-87
2021/09/30 03:10:59;;;;;;;8.45;1.15;;;;;;;;;;4993773;28;20035;-87
2021/09/30 03:13:26;;;;;;;0.50;0.50;;;12.90;58.00;;;;;;4997995;28;20114;-86
2021/09/30 03:16:21;;;;;;;;;;;;;;;;;;4977324;28;20046;-87
2021/09/30 03:23:35;;;;;;;0.40;0.40;;;12.70;58.20;;;;;;4980765;28;20109;-86
2021/09/30 03:26:02;;;;;;;1.45;1.35;;;;;;;;;;4983193;28;20056;-87
2021/09/30 03:28:29;;;;;;;0.63;0.50;;;12.70;58.10;;;;;;4993422;28;20038;-88
2021/09/30 03:30:56;;;;;;;;;;;12.80;58.10;;;;;;4993932;28;20026;-85
2021/09/30 03:33:23;;;;;;;1.27;0.80;;;;;;;;;;4994061;28;19905;-87
2021/09/30 03:35:49;;;;;;;3.93;0.70;;;12.80;58.30;;;;;;4993590;28;20030;-87
2021/09/30 03:38:15;;;;;;;0.52;0.43;;;;;;;;;;5006867;28;20049;-87
2021/09/30 03:40:42;;;;;;;1.27;0.65;;;;;;;;;;4985984;28;20031;-88
2021/09/30 03:43:09;;;;;;;1.75;0.65;;;12.60;58.30;;;;;;4991921;28;20118;-88
2021/09/30 03:45:36;;;;;;;0.47;0.47;;;;;;;;;;4973574;28;20066;-88
2021/09/30 03:48:02;;;;;;;3.22;0.70;;;;;;;;;;5008866;28;20018;-87
2021/09/30 03:50:46;;;;;;;0.73;0.73;;;;;;;;;;5008657;28;20136;-88
2021/09/30 03:56:03;;;;;;;0.60;0.60;;;;;;;;;;4987079;28;20392;-87
2021/09/30 04:01:15;;;;;;;0.50;0.50;;;;;;;;;;4993312;28;20052;-86
2021/09/30 04:03:41;;;;;;;;;;;12.60;57.20;;;;;;4993703;28;20035;-87
2021/09/30 04:06:07;;;;;;;1.00;1.00;;;;;;;;;;4975700;28;19996;-87
2021/09/30 04:08:34;;;;;;;0.57;0.57;;;;;;;;;;4982407;28;20049;-87
2021/09/30 04:11:00;;;;;;;2.45;0.63;;;;;;;;;;4983486;28;20026;-86
2021/09/30 04:13:26;;;;;;;0.40;0.40;;;;;;;;;;4991307;28;20503;-87
2021/09/30 04:15:52;;;;;;;0.50;0.50;;;;;;;;;;4990068;28;20023;-87
2021/09/30 04:18:19;;;;;;;2.35;1.23;;;;;;;;;;4974007;28;20034;-88
2021/09/30 04:20:45;;;;;;;0.75;0.70;;;;;;;;;;4992401;28;20038;-86
2021/09/30 04:23:11;;;;;;;0.75;0.57;;;;;;;;;;5004418;28;20057;-88
2021/09/30 04:25:37;;;;;;;3.65;0.65;;;;;;;;;;4981322;28;20050;-86
2021/09/30 04:28:03;;;;;;;0.60;0.60;;;;;;;;;;4977670;28;20058;-88
2021/09/30 04:30:29;;;;;;;1.95;0.47;;;;;;;;;;4973620;28;20042;-87
2021/09/30 04:32:55;;;;;;;0.60;0.60;;;;;;;;;;4976912;28;20456;-86
2021/09/30 04:35:21;;;;;;;1.40;0.98;;;;;;;;;;4977478;28;20033;-88
2021/09/30 04:37:48;;;;;;;0.40;0.40;;;;;;;;;;4981369;28;20077;-86
2021/09/30 04:40:14;;;;;;;1.85;0.60;;;;;;;;;;4993782;28;20026;-87
2021/09/30 04:42:40;;;;;;;1.33;0.68;;;;;;;;;;4991927;28;20031;-89
2021/09/30 04:45:06;;;;;;;0.40;0.40;;;;;;;;;;4990720;28;20032;-86
2021/09/30 04:47:32;;;;;;;6.95;0.90;;;;;;;;;;5011758;28;20038;-87
2021/09/30 04:49:58;;;;;;;1.52;0.90;;;;;;;;;;4991411;28;20157;-88
2021/09/30 04:52:24;;;;;;;0.95;0.60;;;;;;;;;;4992307;28;20101;-87
2021/09/30 04:54:50;;;;;;;0.85;0.68;;;;;;;;;;4991018;28;20027;-86
2021/09/30 04:57:16;;;;;;;0.95;0.45;;;;;;;;;;4990620;28;20029;-86
2021/09/30 04:59:43;;;;;;;1.25;0.60;;;;;;;;;;4977775;28;20122;-87
2021/09/30 05:02:09;;;;;;;0.95;0.90;;;;;;;;;;4986484;28;20557;-86
2021/09/30 05:04:35;;;;;;;0.50;0.50;;;;;;;;;;4991285;28;20566;-87
2021/09/30 05:07:01;;;;;;;0.82;0.82;;;;;;;;;;4991385;28;20483;-87
2021/09/30 05:09:28;;;;;;;1.25;0.88;;;;;;;;;;4991815;28;20034;-86
2021/09/30 05:11:57;;;;;;;0.50;0.50;;;;;;;;;;5006745;28;20025;-86
2021/09/30 05:14:24;;;;;;;0.60;0.60;;;;;;;;;;4999370;28;20030;-87
2021/09/30 05:16:51;;;;;;;0.50;0.50;;;;;;;;;;4989021;28;20033;-86
2021/09/30 05:19:17;;;;;;;2.85;0.95;;;;;;;;;;4988508;28;20030;-86
2021/09/30 05:21:44;;;;;;;0.50;0.50;;;;;;;;;;5003077;28;20049;-87
2021/09/30 05:24:10;;;;;;;2.20;0.65;;;;;;;;;;4995783;28;20025;-88
2021/09/30 05:26:36;;;;;;;0.80;0.70;;;;;;;;;;4990721;28;20149;-86
2021/09/30 05:29:03;;;;;;;0.60;0.52;;;;;;;;;;4992666;28;20118;-87
2021/09/30 05:31:29;;;;;;;1.27;1.00;;;;;;;;;;4994039;28;20037;-87
2021/09/30 05:33:55;;;;;;;1.20;1.15;;;;;;;;;;4993519;28;20117;-87
2021/09/30 05:36:21;;;;;;;2.78;1.40;;;;;;;;;;4991010;28;20093;-87
2021/09/30 05:38:47;;;;;;;1.48;0.98;;;;;;;;;;5007184;28;20030;-87
2021/09/30 05:41:13;;;;;;;1.17;0.73;;;;;;;;;;4993392;28;20038;-85
2021/09/30 05:43:42;;;;;;;1.65;0.70;;;;;;;;;;4991840;28;20496;-86
2021/09/30 05:46:11;;;;;;;1.85;0.93;;;;;;;;;;4990689;28;20045;-87
2021/09/30 05:48:37;;;;;;;1.13;1.02;;;;;;;;;;4993425;28;20772;-86
2021/09/30 05:51:03;;;;;;;6.47;2.00;;;;;;;;;;4992819;28;20046;-86
2021/09/30 05:53:29;;;;;;;2.85;1.30;;;;;;;;;;5002502;28;20027;-87
2021/09/30 05:55:55;;;;;;;2.03;1.52;;;;;;;;;;4999938;28;20026;-85
2021/09/30 05:58:21;;;;;;;3.95;2.15;;;;;;;;;;4991195;28;20046;-91
2021/09/30 06:16:26;;;;;;;23.35;1.52;;;;;;;;;;4990075;28;20026;-86
2021/09/30 06:18:52;;;;;;;1.50;1.20;;;;;;;;;;4993746;28;20113;-86
2021/09/30 06:21:18;;;;;;;1.30;1.20;;;;;;;;;;4994347;28;20133;-86
2021/09/30 06:23:44;;;;;;;2.00;1.35;;;;;;;;;;4987914;28;20022;-86
2021/09/30 06:26:11;;;;;;;3.05;1.13;;;12.20;57.70;;;;;;4986528;28;20054;-88
2021/09/30 06:28:37;;;;;;;1.77;1.45;;;;;;;;;;4986940;28;20085;-87
2021/09/30 06:31:03;;;;;;;5.38;0.65;;;;;;;;;;5008029;28;20043;-87
2021/09/30 06:33:30;;;;;;;1.33;0.80;;;;;;;;;;4974045;28;20170;-87
2021/09/30 06:35:56;;;;;;;6.47;1.15;;;;;;;;;;4993675;28;20034;-86
2021/09/30 06:38:22;;;;;;;1.95;0.90;;;;;;;;;;4992927;28;20229;-87
2021/09/30 06:40:48;;;;;;;1.15;0.73;;;;;;;;;;4991966;28;20037;-86
2021/09/30 06:43:15;;;;;;;3.92;0.85;;;;;;;;;;4992046;28;20022;-87
2021/09/30 06:45:41;;;;;;;1.02;0.80;;;;;;;;;;4976618;28;20054;-86
2021/09/30 06:48:07;;;;;;;1.42;1.33;;;;;;;;;;4990096;28;20018;-86
2021/09/30 06:50:33;;;;;;;2.33;1.17;;;;;;;;;;4992288;28;20053;-86
2021/09/30 06:53:01;;;;;;;6.30;1.23;;;;;;;;;;4992083;28;20046;-87
2021/09/30 06:55:27;;;;;;;1.35;0.95;;;;;;;;;;4992815;28;20034;-86
2021/09/30 06:57:53;;;;;;;1.15;0.82;;;;;;;;;;4989567;28;20030;-86
2021/09/30 07:00:21;;;;;;;3.53;1.20;;;;;;;;;;4993180;28;20451;-86
2021/09/30 07:02:47;;;;;;;0.63;0.52;;;;;;;;;;4990152;28;20022;-87
2021/09/30 07:05:14;;;;;;;1.20;0.70;;;;;;;;;;4992733;28;20416;-86
2021/09/30 07:07:40;;;;;;;0.68;0.63;;;;;;;;;;5005778;28;20018;-86
2021/09/30 07:10:08;;;;;;;0.88;0.60;;;;;;;;;;4991833;28;20057;-86
2021/09/30 07:12:34;;;;;;;0.57;0.57;;;;;;;;;;4991328;28;20101;-87
2021/09/30 07:15:00;;;;;;;7.22;0.60;;;;;;;;;;4996957;28;20070;-86
2021/09/30 07:17:28;;;;;;;4.47;1.13;;;;;;;;;;4987204;28;20562;-86
2021/09/30 07:19:54;;;;;;;;;;;;;;;;;;4988624;28;20042;-87
2021/09/30 07:22:20;;;;;;;0.82;0.70;;;;;;;;;;4993966;28;19914;-88
2021/09/30 07:24:46;;;;;;;3.90;0.70;;;;;;;;;;4992021;28;20033;-88
2021/09/30 07:27:14;;;;;;;0.68;0.50;;;;;;;;;;4992675;28;20038;-86
2021/09/30 07:29:40;;;;;;;1.05;0.52;;;;;;;;;;4991734;28;20586;-87
2021/09/30 07:32:06;;;;;;;0.40;0.40;;;;;;;;;;4986073;28;20035;-86
2021/09/30 07:34:33;;;;;;;6.03;0.52;;;;;;;;;;4980564;28;20104;-87
2021/09/30 07:36:59;;;;;;;1.60;0.40;;;21.60;40.20;;;;;;4991346;28;20044;-87
2021/09/30 07:39:26;;;;;;;1.08;0.68;;;;;;;;;;4976332;28;20026;-88
2021/09/30 07:41:52;;;;;;;0.55;0.47;;;;;;;;;;5003544;28;20034;-87
2021/09/30 07:44:18;;;;;;;2.83;0.90;;;23.10;37.00;;;;;;4986375;28;20031;-87
2021/09/30 07:46:45;;;;;;;1.58;0.63;;;;;;;;;;4989229;28;20041;-90
2021/09/30 07:49:12;;;;;;;1.63;0.57;;;;;;;;;;4989151;28;20117;-87
2021/09/30 07:51:38;;;;;;;0.45;0.22;;;;;;;;;;4986781;28;20061;-86
2021/09/30 07:54:05;;;;;;;8.30;0.60;;;;;;;;;;4992590;28;20053;-87
2021/09/30 07:56:32;;;;;;;4.13;2.03;;;;;;;;;;4988241;28;20396;-87
2021/09/30 07:58:58;;;;;;;6.07;0.60;;;;;;;;;;5003127;28;20073;-90
2021/09/30 08:01:24;;;;;;;1.60;0.40;;;;;;;;;;4999831;28;20033;-93
2021/09/30 08:03:50;;;;;;;0.50;0.45;;;;;;;;;;4993618;28;20034;-94
2021/09/30 08:06:16;;;;;;;0.88;0.73;;;;;;;;;;4993066;28;20216;-88
2021/09/30 08:08:42;;;;;;;4.83;1.27;;;;;;;;;;4979178;28;20042;-86
2021/09/30 08:11:08;;;;;;;1.67;0.55;;;;;;;;;;4999078;28;20042;-88
2021/09/30 08:13:34;;;;;;;1.95;0.63;;;;;;;;;;4990156;28;20141;-87
2021/09/30 08:16:01;;;;;;;3.72;0.40;;;;;;;;;;4981924;28;20045;-88
2021/09/30 08:18:27;;;;;;;4.60;0.47;;;;;;;;;;4990319;28;20019;-86
2021/09/30 08:20:54;;;;;;;1.30;0.73;;;;;;;;;;4979654;28;20106;-86
2021/09/30 08:23:20;;;;;;;0.80;0.47;;;25.30;49.20;;;;;;5001556;28;20065;-86
2021/09/30 08:25:47;;;;;;;2.22;0.70;;;25.90;33.40;;;;;;4991094;28;20415;-88
2021/09/30 08:28:13;;;;;;;1.38;0.30;;;26.10;33.90;;;;;;4985911;28;20031;-88
2021/09/30 08:30:40;;;;;;;4.90;1.13;;;25.90;33.50;;;;;;4975082;28;20034;-94
2021/09/30 08:33:07;;;;;;;;;;;25.80;33.50;;;;;;4994309;28;20034;-90
2021/09/30 08:35:33;;;;;;;0.32;0.20;;;;;;;;;;4990016;28;19913;-87
2021/09/30 08:37:59;;;;;;;0.40;0.40;;;;;;;;;;5005036;28;20041;-88
2021/09/30 08:40:25;;;;;;;0.98;0.30;;;;;;;;;;5006112;28;20408;-88
2021/09/30 08:42:52;;;;;;;2.08;0.25;;;;;;;;;;4991147;28;20030;-87
2021/09/30 08:45:22;;;;;;;0.17;0.10;;;26.20;31.90;;;;;;4990929;28;20113;-86
2021/09/30 08:48:02;;;;;;;1.77;0.65;;;26.20;30.80;;;;;;4989069;28;20041;-89
2021/09/30 08:50:29;;;;;;;10.63;1.10;;;;;;;;;;4990906;28;20034;-94
2021/09/30 08:52:55;;;;;;;2.20;0.20;;;;;;;;;;4993517;28;20037;-95
2021/09/30 08:55:21;;;;;;;3.38;1.00;;;;;;;;;;4993667;28;20026;-94
2021/09/30 08:57:49;;;;;;;0.80;0.43;;;25.90;31.40;;;;;;5005664;28;20061;-93
2021/09/30 09:00:17;;;;;;;1.00;0.32;;;25.70;31.60;;;;;;4992019;28;20042;-91
2021/09/30 09:02:51;;;;;;;1.55;0.20;;;;;;;;;;4990857;28;20030;-91
2021/09/30 09:05:18;;;;;;;6.35;0.28;;;25.90;33.10;;;;;;4992215;28;20561;-89
2021/09/30 09:07:56;;;;;;;1.98;0.20;;;26.00;32.40;;;;;;4992588;28;20487;-90
2021/09/30 09:10:26;;;;;;;0.55;0.13;;;26.10;31.30;;;;;;4989579;28;20057;-91
2021/09/30 09:13:05;;;;;;;2.53;0.20;;;25.80;51.80;;;;;;4976367;28;20039;-87
2021/09/30 09:15:48;;;;;;;1.25;0.20;;;;;;;;;;4990447;28;20486;-86
2021/09/30 09:18:18;;;;;;;0.20;0.10;;;25.60;32.30;;;;;;4973842;28;20117;-90
2021/09/30 09:21:04;;;;;;;0.32;0.10;;;25.90;31.60;;;;;;4989719;28;20092;-86
2021/09/30 09:23:32;;;;;;;2.07;0.33;;;25.40;32.20;;;;;;4989579;28;20092;-89
2021/09/30 09:26:15;;;;;;;9.63;1.52;;;25.20;33.50;;;;;;4989313;28;20054;-86
2021/09/30 09:29:07;;;;;;;0.28;0.10;;;25.10;51.40;;;;;;4991376;28;20026;-87
2021/09/30 09:31:34;;;;;;;1.45;0.30;;;;;;;;;;4990288;28;20057;-88
2021/09/30 09:34:28;;;;;;;7.93;0.40;;;25.40;32.40;;;;;;4990201;28;20109;-86
2021/09/30 09:37:14;;;;;;;0.85;0.13;;;25.40;32.40;;;;;;4990907;28;20057;-86
2021/09/30 09:39:40;;;;;;;2.50;0.32;;;;;;;;;;4970687;28;20027;-87
2021/09/30 09:42:14;;;;;;;1.63;0.08;;;25.30;33.00;;;;;;4990716;28;20527;-86
2021/09/30 09:44:55;;;;;;;0.85;0.10;;;25.60;33.50;;;;;;4989809;28;20037;-86
2021/09/30 09:47:26;;;;;;;1.67;0.85;;;25.60;33.00;;;;;;4991610;28;20026;-87
2021/09/30 09:50:19;;;;;;;1.50;0.13;;;25.80;31.60;;;;;;4990808;28;20050;-88
2021/09/30 09:52:54;;;;;;;0.22;0.13;;;;;;;;;;4985536;28;20030;-88
2021/09/30 09:55:21;;;;;;;0.55;0.30;;;;;;;;;;4990981;28;20267;-86
2021/09/30 09:57:59;;;;;;;1.42;0.10;;;;;;;;;;4988527;28;20165;-84
2021/09/30 10:00:26;;;;;;;0.57;0.10;;;;;;;;;;4972551;28;20056;-87
2021/09/30 10:02:52;;;;;;;0.90;0.20;;;;;;;;;;4986573;28;20057;-85
2021/09/30 10:05:19;;;;;;;0.52;0.20;;;;;;;;;;4989116;28;20044;-87
2021/09/30 10:07:46;;;;;;;0.30;0.13;;;26.00;31.00;;;;;;4988623;28;20113;-86
2021/09/30 10:10:12;;;;;;;0.50;0.13;;;;;;;;;;4989424;28;20041;-85
2021/09/30 10:12:39;;;;;;;1.70;0.47;;;;;;;;;;4988680;28;20091;-85
2021/09/30 10:15:06;;;;;;;0.60;0.10;;;25.80;31.30;;;;;;4994988;28;20448;-85
2021/09/30 10:17:31;;;;;;;;;;;25.90;31.90;;;;;;4981013;28;20023;-85
2021/09/30 10:19:58;;;;;;;0.47;0.20;;;25.90;32.20;;;;;;4981286;28;20395;-84
2021/09/30 10:22:25;;;;;;;3.72;0.65;;;25.80;31.70;;;;;;4979985;28;20030;-86
2021/09/30 10:24:53;;;;;;;0.60;0.20;;;;;;;;;;5007143;28;20030;-85
2021/09/30 10:27:20;;;;;;;2.05;0.20;;;25.70;31.90;;;;;;4978493;28;20027;-85
2021/09/30 10:29:47;;;;;;;0.60;0.52;;;25.40;31.70;;;;;;4980569;28;20134;-87
2021/09/30 10:32:19;;;;;;;0.55;0.50;;;25.20;31.20;;;;;;4986734;28;20050;-84
2021/09/30 10:34:50;;;;;;;0.57;0.28;;;;;;;;;;4991975;28;20030;-86
2021/09/30 10:37:19;;;;;;;4.45;0.30;;;;;;;;;;5007076;28;20029;-87
2021/09/30 10:39:49;;;;;;;0.30;0.20;;;;;;;;;;4976268;28;20031;-85
2021/09/30 10:42:55;;;;;;;4.97;0.30;;;24.20;33.00;;;;;;5008814;28;20574;-84
2021/09/30 10:45:39;;;;;;;3.72;1.05;;;24.10;34.00;;;;;;4971042;28;20500;-86
2021/09/30 10:48:07;;;;;;;0.47;0.30;;;24.00;34.80;;;;;;4968822;28;20047;-85
2021/09/30 10:50:53;;;;;;;0.73;0.47;;;;;;;;;;4970538;28;20466;-86
2021/09/30 10:53:19;;;;;;;1.48;0.35;;;;;;;;;;4969898;28;20117;-87
2021/09/30 10:55:45;;;;;;;2.15;0.80;;;;;;;;;;4969252;28;20039;-87
2021/09/30 10:58:24;;;;;;;4.18;0.88;;;23.70;35.70;;;;;;4970255;28;20026;-85
2021/09/30 11:00:57;;;;;;;0.75;0.30;;;23.50;36.60;;;;;;4968907;28;20591;-86
2021/09/30 11:03:24;;;;;;;1.20;0.60;;;;;;;;;;4950152;28;20133;-86
2021/09/30 11:06:17;;;;;;;0.70;0.38;;;23.40;34.90;;;;;;4968475;28;20320;-86
2021/09/30 11:08:47;;;;;;;5.20;0.40;;;;;;;;;;4968519;28;20130;-85
2021/09/30 11:11:16;;;;;;;0.45;0.22;;;23.20;36.10;;;;;;4966248;28;20081;-87
2021/09/30 11:13:49;;;;;;;0.75;0.20;;;23.30;36.20;;;;;;4968570;28;20110;-85
2021/09/30 11:16:20;;;;;;;2.85;0.70;;;23.30;35.60;;;;;;4954753;28;20675;-87
2021/09/30 11:18:55;;;;;;;0.88;0.22;;;;;;;;;;4968301;28;20559;-87
2021/09/30 11:21:31;;;;;;;1.80;0.32;;;;;;;;;;4986500;28;20046;-87
2021/09/30 11:23:58;;;;;;;0.40;0.30;;;;;;;;;;4991919;28;20531;-87
2021/09/30 11:26:24;;;;;;;0.40;0.35;;;;;;;;;;4991390;28;20082;-84
2021/09/30 11:28:52;;;;;;;0.50;0.30;;;23.30;36.50;;;;;;4991502;28;20089;-87
2021/09/30 11:31:22;;;;;;;1.65;0.75;;;;;;;;;;4991559;28;20365;-87
2021/09/30 11:33:48;;;;;;;2.40;0.47;;;;;;;;;;4990813;28;20114;-87
2021/09/30 11:36:15;;;;;;;1.63;0.52;;;23.20;36.80;;;;;;5007127;28;20097;-86
2021/09/30 11:38:42;;;;;;;2.15;0.70;;;23.20;36.50;;;;;;4983937;28;20531;-85
2021/09/30 11:41:08;;;;;;;0.25;0.10;;;;;;;;;;4986499;28;20039;-87
2021/09/30 11:43:34;;;;;;;5.00;0.40;;;;;;;;;;4980759;28;20507;-86
2021/09/30 11:46:23;;;;;;;0.95;0.50;;;23.30;37.50;;;;;;4990079;28;20031;-87
2021/09/30 11:49:04;;;;;;;1.98;0.50;;;23.20;36.60;;;;;;4973856;28;20751;-87
2021/09/30 11:51:30;;;;;;;2.85;0.40;;;;;;;;;;4987442;28;20030;-88
2021/09/30 11:53:56;;;;;;;1.98;0.30;;;;;;;;;;4979674;28;20027;-89
2021/09/30 11:56:22;;;;;;;1.80;0.50;;;;;;;;;;5002856;28;20038;-86
2021/09/30 11:59:05;;;;;;;1.60;0.55;;;23.10;35.50;;;;;;4986992;28;20023;-87
2021/09/30 12:01:42;;;;;;;0.32;0.30;;;23.10;35.90;;;;;;4992633;28;20486;-86
2021/09/30 12:04:09;;;;;;;2.08;0.30;;;;;;;;;;4985016;28;20061;-86
2021/09/30 12:06:41;;;;;;;0.70;0.30;;;;;;;;;;4991010;28;20030;-86
2021/09/30 12:09:10;;;;;;;3.05;0.55;;;;;;;;;;4990775;28;20538;-87
2021/09/30 12:11:37;;;;;;;3.88;0.40;;;;;;;;;;4991799;28;20041;-89
2021/09/30 12:14:04;;;;;;;1.60;0.60;;;;;;;;;;4993051;28;20042;-91
2021/09/30 12:16:30;;;;;;;0.30;0.20;;;;;;;;;;4993005;28;20026;-88
2021/09/30 12:19:04;;;;;;;0.73;0.25;;;22.50;35.20;;;;;;4993178;28;20117;-88
2021/09/30 12:21:40;;;;;;;0.30;0.30;;;;;;;;;;4990620;28;20026;-88
2021/09/30 12:24:06;;;;;;;2.78;1.05;;;;;;;;;;4975104;28;20041;-87
2021/09/30 12:26:33;;;;;;;0.50;0.40;;;;;;;;;;5002079;28;20046;-86
2021/09/30 12:28:59;;;;;;;4.22;0.38;;;;;;;;;;4990907;28;20583;-85
2021/09/30 12:31:25;;;;;;;0.95;0.40;;;;;;;;;;5005414;28;20133;-86
2021/09/30 12:33:51;;;;;;;1.73;0.45;;;;;;;;;;4990454;28;20113;-88
2021/09/30 12:36:18;;;;;;;2.15;1.00;;;;;;;;;;5006499;28;20034;-87
2021/09/30 12:38:58;;;;;;;0.10;0.10;;;;;;;;;;4990697;28;20396;-87
2021/09/30 12:41:24;;;;;;;1.65;0.55;;;;;;;;;;4983782;28;20042;-88
2021/09/30 12:43:50;;;;;;;0.10;0.10;;;;;;;;;;4982307;28;20029;-86
2021/09/30 12:46:19;;;;;;;0.43;0.32;;;;;;;;;;4988255;28;20037;-87
2021/09/30 12:48:51;;;;;;;0.80;0.73;;;;;;;;;;4975609;28;20026;-86
2021/09/30 12:51:22;;;;;;;1.63;0.50;;;;;;;;;;4986712;28;20034;-88
2021/09/30 12:53:48;;;;;;;1.55;0.40;;;;;;;;;;4991353;28;20511;-87
2021/09/30 12:56:16;;;;;;;3.13;0.65;;;;;;;;;;4991566;28;20038;-87
2021/09/30 12:58:45;;;;;;;0.68;0.30;;;;;;;;;;4991083;28;20026;-88
2021/09/30 13:01:26;;;;;;;2.80;0.40;;;;;;;;;;4990592;28;20033;-86
2021/09/30 13:04:26;;;;;;;0.65;0.22;;;21.50;37.10;;;;;;4987615;28;20046;-88
2021/09/30 13:06:55;;;;;;;0.40;0.40;;;;;;;;;;4988527;28;20042;-86
2021/09/30 13:09:25;;;;;;;1.23;0.30;;;21.40;36.30;;;;;;4984302;28;20081;-85
2021/09/30 13:12:01;;;;;;;1.02;0.50;;;21.40;38.60;;;;;;4987279;28;20130;-85
2021/09/30 13:14:29;;;;;;;0.32;0.30;;;;;;;;;;4982276;28;20133;-85
2021/09/30 13:17:13;;;;;;;0.90;0.57;;;21.00;37.60;;;;;;4981517;28;20542;-86
2021/09/30 13:19:49;;;;;;;0.52;0.28;;;;;;;;;;4986214;28;20038;-86
2021/09/30 13:22:28;;;;;;;1.97;0.47;;;;;;;;;;4990093;28;20401;-86
2021/09/30 13:24:55;;;;;;;4.72;1.75;;;20.90;40.60;;;;;;4989040;28;20301;-86
2021/09/30 13:27:23;;;;;;;0.85;0.40;;;;;;;;;;4989197;28;20033;-86
2021/09/30 13:29:49;;;;;;;2.35;0.40;;;;;;;;;;4979090;28;20042;-85
2021/09/30 13:32:16;;;;;;;1.08;0.77;;;;;;;;;;4998633;28;20403;-85
2021/09/30 13:34:42;;;;;;;1.13;0.50;;;;;;;;;;4987663;28;20030;-86
2021/09/30 13:37:09;;;;;;;2.83;0.32;;;;;;;;;;4974256;28;20511;-84
2021/09/30 13:39:34;;;;;;;1.43;0.43;;;;;;;;;;4988574;28;20053;-87
2021/09/30 13:42:01;;;;;;;0.63;0.50;;;;;;;;;;4983994;28;20497;-85
2021/09/30 13:44:27;;;;;;;0.82;0.43;;;;;;;;;;4980494;28;20027;-85
2021/09/30 13:46:53;;;;;;;0.30;0.30;;;;;;;;;;4984425;28;20035;-85
2021/09/30 13:49:19;;;;;;;0.35;0.25;;;;;;;;;;4994597;28;20074;-86
2021/09/30 13:51:45;;;;;;;0.35;0.30;;;;;;;;;;4977447;28;20066;-85
2021/09/30 13:54:11;;;;;;;0.28;0.28;;;;;;;;;;4980770;28;20365;-86
2021/09/30 13:56:37;;;;;;;0.95;0.43;;;;;;;;;;4996542;28;20031;-85
2021/09/30 13:59:03;;;;;;;1.52;0.40;;;;;;;;;;4985539;28;20381;-86
2021/09/30 14:01:29;;;;;;;0.45;0.45;;;;;;;;;;5008744;28;20042;-85
2021/09/30 14:03:56;;;;;;;0.43;0.30;;;;;;;;;;4992318;28;20019;-86
2021/09/30 14:06:22;;;;;;;1.25;0.65;;;;;;;;;;5008764;28;20030;-85
2021/09/30 14:08:52;;;;;;;1.55;0.40;;;;;;;;;;4982305;28;20031;-88
2021/09/30 14:11:19;;;;;;;0.40;0.40;;;;;;;;;;4985890;28;20404;-84
2021/09/30 14:13:45;;;;;;;0.97;0.40;;;;;;;;;;4991182;28;20622;-85
2021/09/30 14:16:11;;;;;;;0.28;0.20;;;;;;;;;;4992311;28;20034;-85
2021/09/30 14:18:38;;;;;;;3.22;0.63;;;;;;;;;;4991048;28;20022;-86
2021/09/30 14:21:04;;;;;;;1.65;0.90;;;;;;;;;;4996166;28;20050;-86
2021/09/30 14:23:30;;;;;;;0.35;0.32;;;;;;;;;;4981079;28;20714;-85
2021/09/30 14:25:58;;;;;;;0.63;0.30;;;;;;;;;;4998225;28;20430;-86
2021/09/30 14:28:24;;;;;;;1.23;0.68;;;;;;;;;;4992358;28;20038;-84
2021/09/30 14:30:52;;;;;;;0.70;0.70;;;;;;;;;;4997692;28;20035;-84
2021/09/30 14:33:18;;;;;;;0.22;0.20;;;;;;;;;;4992805;28;20044;-85
2021/09/30 14:35:44;;;;;;;0.82;0.40;;;;;;;;;;4992188;28;20030;-86
2021/09/30 14:38:10;;;;;;;3.00;0.50;;;;;;;;;;4986635;28;20027;-85
2021/09/30 14:40:36;;;;;;;8.63;0.38;;;;;;;;;;4995501;28;20030;-85
2021/09/30 14:43:02;;;;;;;0.73;0.32;;;;;;;;;;4991178;28;20052;-85
2021/09/30 14:45:28;;;;;;;1.45;0.55;;;;;;;;;;5003393;28;20030;-85
2021/09/30 14:47:54;;;;;;;0.22;0.22;;;;;;;;;;4995988;28;20041;-83
2021/09/30 14:50:20;;;;;;;4.95;0.60;;;;;;;;;;4999706;28;20046;-85
2021/09/30 14:52:46;;;;;;;3.33;0.30;;;;;;;;;;4994456;28;20443;-84
2021/09/30 14:55:12;;;;;;;0.28;0.28;;;;;;;;;;4976099;28;20038;-84
2021/09/30 14:57:38;;;;;;;0.95;0.68;;;;;;;;;;4989534;28;20077;-84
2021/09/30 15:00:05;;;;;;;0.90;0.30;;;;;;;;;;4976960;28;20033;-85
2021/09/30 15:02:31;;;;;;;2.15;0.50;;;;;;;;;;4988470;28;20030;-86
2021/09/30 15:04:57;;;;;;;1.15;0.77;;;;;;;;;;4992599;28;20034;-87
2021/09/30 15:07:24;;;;;;;0.28;0.25;;;;;;;;;;4992570;28;20026;-87
2021/09/30 15:09:50;;;;;;;2.15;0.25;;;;;;;;;;4984672;28;20121;-87
2021/09/30 15:12:16;;;;;;;3.20;0.70;;;;;;;;;;4982525;28;20018;-87
2021/09/30 15:14:42;;;;;;;0.20;0.20;;;;;;;;;;4991265;28;20077;-87
2021/09/30 15:17:21;;;;;;;1.50;0.32;;;;;;;;;;4989393;28;20030;-86
2021/09/30 15:19:53;;;;;;;3.10;0.85;;;;;;;;;;4988878;28;20132;-86
2021/09/30 15:22:19;;;;;;;2.03;0.95;;;;;;;;;;4991975;28;20029;-86
2021/09/30 15:24:45;;;;;;;0.50;0.50;;;;;;;;;;4975582;28;20023;-86
2021/09/30 15:27:12;;;;;;;0.20;0.20;;;;;;;;;;5007421;28;20027;-86
2021/09/30 15:29:39;;;;;;;0.57;0.40;;;;;;;;;;4992050;28;20050;-85
2021/09/30 15:32:07;;;;;;;3.67;0.55;;;;;;;;;;4994024;28;20538;-92
2021/09/30 15:34:33;;;;;;;;;;;19.50;41.60;;;;;;5002256;28;20093;-88
2021/09/30 15:36:59;;;;;;;2.90;0.32;;;;;;;;;;4997274;28;20505;-86
2021/09/30 15:39:25;;;;;;;3.22;0.60;;;;;;;;;;4992779;28;20034;-87
2021/09/30 15:41:51;;;;;;;1.05;0.57;;;;;;;;;;4982701;28;20034;-84
2021/09/30 15:44:18;;;;;;;3.83;0.40;;;;;;;;;;4988375;28;20114;-85
2021/09/30 15:46:48;;;;;;;0.57;0.30;;;;;;;;;;5006767;28;20129;-84
2021/09/30 15:49:15;;;;;;;2.75;0.20;;;;;;;;;;4993607;28;20534;-84
2021/09/30 15:51:41;;;;;;;0.60;0.40;;;;;;;;;;4981363;28;20041;-85
2021/09/30 15:54:07;;;;;;;2.97;0.40;;;;;;;;;;4986519;28;20045;-84
2021/09/30 15:56:33;;;;;;;1.00;0.70;;;;;;;;;;4999424;28;20451;-85
2021/09/30 15:58:59;;;;;;;0.52;0.50;;;;;;;;;;4997502;28;20041;-85
2021/09/30 16:01:29;;;;;;;5.88;1.00;;;;;;;;;;4990889;28;20023;-85
2021/09/30 16:03:55;;;;;;;0.30;0.30;;;;;;;;;;4991819;28;20674;-84
2021/09/30 16:06:23;;;;;;;0.50;0.40;;;;;;;;;;4999838;28;20034;-85
2021/09/30 16:08:49;;;;;;;0.30;0.30;;;;;;;;;;5004312;28;20587;-85
2021/09/30 16:11:15;;;;;;;0.30;0.30;;;;;;;;;;4985086;28;20125;-84
2021/09/30 16:13:41;;;;;;;1.55;0.45;;;;;;;;;;4993849;28;20030;-85
2021/09/30 16:16:07;;;;;;;0.27;0.27;;;;;;;;;;5007763;28;20026;-85
2021/09/30 16:18:37;;;;;;;0.77;0.50;;;;;;;;;;4990777;28;20328;-85
2021/09/30 16:21:08;;;;;;;0.70;0.57;;;18.90;41.70;;;;;;4992742;28;20066;-84
2021/09/30 16:23:34;;;;;;;1.27;0.60;;;;;;;;;;4991304;28;20030;-85
2021/09/30 16:26:00;;;;;;;1.02;0.63;;;;;;;;;;4988168;28;20517;-84
2021/09/30 16:28:26;;;;;;;0.32;0.30;;;;;;;;;;4992506;28;20033;-84
2021/09/30 16:30:55;;;;;;;2.00;0.45;;;;;;;;;;4989488;28;20125;-84
2021/09/30 16:33:22;;;;;;;0.80;0.40;;;;;;;;;;4976669;28;20046;-85
2021/09/30 16:35:48;;;;;;;2.08;0.50;;;;;;;;;;4979876;28;20041;-86
2021/09/30 16:38:14;;;;;;;1.75;0.68;;;;;;;;;;4985855;28;20085;-84
2021/09/30 16:40:40;;;;;;;0.50;0.40;;;;;;;;;;4988348;28;20076;-84
2021/09/30 16:43:06;;;;;;;3.38;0.30;;;;;;;;;;4974266;28;20491;-84
2021/09/30 16:45:32;;;;;;;4.03;0.40;;;;;;;;;;4989882;28;20085;-84
2021/09/30 16:47:58;;;;;;;1.40;0.30;;;;;;;;;;4987441;28;20041;-84
2021/09/30 16:50:24;;;;;;;3.55;0.88;;;;;;;;;;4985739;28;20121;-84
2021/09/30 16:52:50;;;;;;;1.00;0.47;;;;;;;;;;4986181;28;20033;-84
2021/09/30 16:55:18;;;;;;;1.95;0.80;;;;;;;;;;4983673;28;20033;-83
2021/09/30 16:57:44;;;;;;;0.85;0.50;;;;;;;;;;5003016;28;20118;-84
2021/09/30 17:00:11;;;;;;;0.73;0.52;;;;;;;;;;4986989;28;20037;-84
2021/09/30 17:02:37;;;;;;;2.67;1.42;;;;;;;;;;4985265;28;20035;-83
2021/09/30 17:05:04;;;;;;;0.47;0.45;;;;;;;;;;4988062;28;20092;-84
2021/09/30 17:07:30;;;;;;;0.88;0.52;;;;;;;;;;5001945;28;20054;-84
2021/09/30 17:09:56;;;;;;;3.35;0.82;;;;;;;;;;4984944;28;20046;-84
2021/09/30 17:12:22;;;;;;;0.70;0.45;;;;;;;;;;4986512;28;20041;-85
2021/09/30 17:14:48;;;;;;;0.98;0.40;;;;;;;;;;4992286;28;20645;-84
2021/09/30 17:17:14;;;;;;;0.30;0.30;;;;;;;;;;4980432;28;20041;-84
2021/09/30 17:19:40;;;;;;;1.00;0.40;;;;;;;;;;5000636;28;20104;-84
2021/09/30 17:22:07;;;;;;;0.38;0.38;;;;;;;;;;4991212;28;20061;-85
2021/09/30 17:24:34;;;;;;;0.30;0.30;;;;;;;;;;4979952;28;20035;-85